createdAt,value
2019-06-09T00:01:48.502Z,102292.52
2019-06-09T00:04:34.002Z,102292.02
2019-06-09T00:07:21.676Z,102287.00
2019-06-09T00:10:11.210Z,102291.92
2019-06-09T00:12:57.779Z,102291.47
2019-06-09T00:15:44.386Z,102291.06
2019-06-09T00:18:31.688Z,102291.92
2019-06-09T00:21:19.724Z,102294.56
2019-06-09T00:24:09.436Z,102292.27
2019-06-09T00:26:57.363Z,102292.70
2019-06-09T00:29:42.723Z,102309.22
2019-06-09T00:32:30.700Z,102315.97
2019-06-09T00:35:18.053Z,102313.33
2019-06-09T00:38:05.175Z,102311.70
2019-06-09T00:40:52.546Z,102321.92
2019-06-09T00:43:40.460Z,102317.08
2019-06-09T00:46:27.889Z,102321.14
2019-06-09T00:49:17.484Z,102317.61
2019-06-09T00:52:04.492Z,102323.44
2019-06-09T00:54:50.823Z,102322.13
2019-06-09T00:57:38.720Z,102322.13
2019-06-09T01:00:27.573Z,102327.92
2019-06-09T01:03:14.142Z,102330.37
2019-06-09T01:06:01.020Z,102326.40
2019-06-09T01:08:48.558Z,102329.99
2019-06-09T01:11:37.563Z,102331.32
2019-06-09T01:14:23.383Z,102331.41
2019-06-09T01:17:12.462Z,102331.03
2019-06-09T01:19:58.324Z,102340.30
2019-06-09T01:22:47.989Z,102342.55
2019-06-09T01:25:33.709Z,102340.44
2019-06-09T01:28:22.131Z,102331.13
2019-06-09T01:31:09.769Z,102338.62
2019-06-09T01:33:57.274Z,102336.91
2019-06-09T01:36:43.490Z,102333.78
2019-06-09T01:39:30.945Z,102337.29
2019-06-09T01:42:20.663Z,102335.47
2019-06-09T01:45:07.568Z,102329.70
2019-06-09T01:47:53.366Z,102331.91
2019-06-09T01:50:40.985Z,102330.52
2019-06-09T01:53:28.542Z,102320.33
2019-06-09T01:56:18.623Z,102333.23
2019-06-09T01:59:02.940Z,102333.45
2019-06-09T02:01:50.347Z,102332.50
2019-06-09T02:04:38.420Z,102331.14
2019-06-09T02:07:27.355Z,102332.38
2019-06-09T02:10:14.246Z,102335.54
2019-06-09T02:13:01.221Z,102335.97
2019-06-09T02:15:49.188Z,102337.70
2019-06-09T02:18:37.691Z,102335.60
2019-06-09T02:21:24.271Z,102345.79
2019-06-09T02:24:11.783Z,102341.05
2019-06-09T02:26:59.139Z,102354.85
2019-06-09T02:29:47.494Z,102350.05
2019-06-09T02:32:37.731Z,102353.58
2019-06-09T02:35:29.070Z,102346.63
2019-06-09T02:38:12.494Z,102351.18
2019-06-09T02:40:57.693Z,102352.63
2019-06-09T02:43:45.281Z,102356.33
2019-06-09T02:46:55.075Z,102362.58
2019-06-09T02:49:45.465Z,102363.47
2019-06-09T02:52:33.770Z,102363.94
2019-06-09T02:55:15.901Z,102372.39
2019-06-09T02:58:03.404Z,102372.87
2019-06-09T03:00:54.116Z,102375.08
2019-06-09T03:03:59.167Z,102377.33
2019-06-09T03:06:30.852Z,102372.06
2019-06-09T03:09:14.043Z,102374.34
2019-06-09T03:12:02.516Z,102379.30
2019-06-09T03:14:52.590Z,102376.20
2019-06-09T03:17:40.781Z,102385.56
2019-06-09T03:20:30.103Z,102384.75
2019-06-09T03:23:12.341Z,102385.76
2019-06-09T03:26:02.746Z,102391.19
2019-06-09T03:28:47.884Z,102393.92
2019-06-09T03:32:04.170Z,102403.86
2019-06-09T03:39:57.797Z,102413.81
2019-06-09T03:42:45.692Z,102413.81
2019-06-09T03:45:39.488Z,102425.30
2019-06-09T03:48:23.193Z,102414.20
2019-06-09T03:51:08.447Z,102426.98
2019-06-09T03:53:58.205Z,102428.75
2019-06-09T03:56:46.082Z,102433.15
2019-06-09T03:59:42.656Z,102435.73
2019-06-09T04:02:24.743Z,102433.89
2019-06-09T04:05:12.250Z,102437.83
2019-06-09T04:07:57.537Z,102442.20
2019-06-09T04:10:45.387Z,102438.22
2019-06-09T04:13:40.136Z,102440.85
2019-06-09T04:16:23.705Z,102443.89
2019-06-09T04:19:07.416Z,102439.44
2019-06-09T04:21:54.827Z,102433.17
2019-06-09T04:24:44.125Z,102444.13
2019-06-09T04:27:40.681Z,102440.05
2019-06-09T04:30:23.393Z,102431.52
2019-06-09T04:33:06.288Z,102430.00
2019-06-09T04:38:45.367Z,102443.36
2019-06-09T04:41:35.212Z,102443.28
2019-06-09T04:44:18.329Z,102448.52
2019-06-09T04:47:11.585Z,102443.95
2019-06-09T04:49:55.480Z,102439.93
2019-06-09T04:52:46.273Z,102449.11
2019-06-09T04:55:36.066Z,102452.16
2019-06-09T04:58:24.373Z,102450.62
2019-06-09T05:01:05.825Z,102460.31
2019-06-09T05:03:53.255Z,102459.68
2019-06-09T05:07:00.109Z,102461.36
2019-06-09T05:09:29.860Z,102461.16
2019-06-09T05:12:15.389Z,102464.91
2019-06-09T05:15:03.122Z,102467.95
2019-06-09T05:17:53.740Z,102465.63
2019-06-09T05:20:42.541Z,102464.03
2019-06-09T05:23:26.943Z,102470.97
2019-06-09T05:26:14.420Z,102464.70
2019-06-09T05:29:02.444Z,102462.29
2019-06-09T05:31:51.582Z,102458.07
2019-06-09T05:34:38.807Z,102462.72
2019-06-09T05:37:27.185Z,102460.91
2019-06-09T05:40:12.132Z,102459.26
2019-06-09T05:43:01.335Z,102456.09
2019-06-09T05:45:47.372Z,102457.13
2019-06-09T05:48:36.626Z,102455.03
2019-06-09T05:51:22.883Z,102461.33
2019-06-09T05:54:10.944Z,102467.53
2019-06-09T05:56:57.781Z,102470.77
2019-06-09T05:59:45.130Z,102471.44
2019-06-09T06:02:34.190Z,102476.39
2019-06-09T06:05:21.542Z,102470.61
2019-06-09T06:08:07.311Z,102474.97
2019-06-09T06:10:54.575Z,102478.03
2019-06-09T06:13:44.967Z,102473.98
2019-06-09T06:16:31.819Z,102481.91
2019-06-09T06:19:17.649Z,102485.68
2019-06-09T06:22:05.483Z,102488.31
2019-06-09T06:24:52.846Z,102493.59
2019-06-09T06:27:42.653Z,102499.40
2019-06-09T06:30:30.580Z,102500.65
2019-06-09T06:33:16.261Z,102503.12
2019-06-09T06:36:03.992Z,102508.41
2019-06-09T06:38:51.794Z,102504.20
2019-06-09T06:41:42.135Z,102496.69
2019-06-09T06:44:26.214Z,102499.20
2019-06-09T06:47:16.153Z,102504.27
2019-06-09T06:50:02.143Z,102499.27
2019-06-09T06:52:51.559Z,102502.64
2019-06-09T06:55:37.291Z,102506.79
2019-06-09T06:58:24.715Z,102500.05
2019-06-09T07:01:12.017Z,102507.23
2019-06-09T07:04:01.659Z,102502.39
2019-06-09T07:06:48.296Z,102505.77
2019-06-09T07:09:34.480Z,102505.92
2019-06-09T07:12:21.861Z,102500.39
2019-06-09T07:15:10.948Z,102503.52
2019-06-09T07:17:57.400Z,102504.20
2019-06-09T07:20:46.335Z,102508.34
2019-06-09T07:23:32.115Z,102511.52
2019-06-09T07:26:21.135Z,102501.56
2019-06-09T07:29:07.504Z,102493.19
2019-06-09T07:31:55.624Z,102486.54
2019-06-09T07:34:45.291Z,102491.31
2019-06-09T07:37:32.073Z,102493.85
2019-06-09T07:40:20.880Z,102495.46
2019-06-09T07:43:05.687Z,102494.41
2019-06-09T07:45:58.334Z,102492.88
2019-06-09T07:48:41.808Z,102491.67
2019-06-09T07:51:27.631Z,102493.12
2019-06-09T07:54:14.983Z,102493.92
2019-06-09T07:57:02.899Z,102490.33
2019-06-09T07:59:53.334Z,102490.05
2019-06-09T08:02:37.891Z,102487.59
2019-06-09T08:05:25.452Z,102483.06
2019-06-09T08:08:33.591Z,102494.37
2019-06-09T08:11:01.061Z,102489.87
2019-06-09T08:13:48.263Z,102497.09
2019-06-09T08:16:36.179Z,102483.67
2019-06-09T08:19:23.710Z,102493.36
2019-06-09T08:22:11.254Z,102489.45
2019-06-09T08:25:11.601Z,102495.03
2019-06-09T08:28:01.286Z,102495.39
2019-06-09T08:30:47.251Z,102494.70
2019-06-09T08:33:34.327Z,102497.03
2019-06-09T08:36:21.860Z,102489.17
2019-06-09T08:39:12.733Z,102484.84
2019-06-09T08:41:57.311Z,102478.60
2019-06-09T08:44:45.382Z,102490.16
2019-06-09T08:47:31.935Z,102482.73
2019-06-09T08:50:21.556Z,102480.10
2019-06-09T08:53:07.297Z,102476.48
2019-06-09T08:55:55.911Z,102479.39
2019-06-09T08:58:41.991Z,102478.80
2019-06-09T09:01:31.678Z,102474.03
2019-06-09T09:04:16.420Z,102474.72
2019-06-09T09:07:04.084Z,102478.73
2019-06-09T09:09:54.395Z,102471.10
2019-06-09T09:12:40.805Z,102466.79
2019-06-09T09:15:27.508Z,102469.34
2019-06-09T09:18:14.825Z,102470.00
2019-06-09T09:21:02.405Z,102467.06
2019-06-09T09:24:17.180Z,102458.38
2019-06-09T09:26:37.684Z,102446.13
2019-06-09T09:29:25.710Z,102453.11
2019-06-09T09:32:13.494Z,102455.38
2019-06-09T09:35:00.750Z,102456.23
2019-06-09T09:37:50.158Z,102458.66
2019-06-09T09:40:35.543Z,102462.70
2019-06-09T09:43:22.923Z,102459.31
2019-06-09T09:46:11.157Z,102467.35
2019-06-09T09:49:00.699Z,102468.03
2019-06-09T09:51:46.823Z,102470.05
2019-06-09T09:54:33.386Z,102461.37
2019-06-09T09:57:21.270Z,102459.63
2019-06-09T10:00:10.781Z,102454.73
2019-06-09T10:02:59.373Z,102451.33
2019-06-09T10:05:44.284Z,102446.82
2019-06-09T10:08:32.581Z,102444.22
2019-06-09T10:11:19.509Z,102445.58
2019-06-09T10:14:06.884Z,102448.34
2019-06-09T10:16:56.398Z,102438.92
2019-06-09T10:19:42.000Z,102432.16
2019-06-09T10:22:31.587Z,102431.00
2019-06-09T10:25:19.646Z,102425.94
2019-06-09T10:28:04.527Z,102416.33
2019-06-09T10:30:56.007Z,102428.19
2019-06-09T10:33:40.154Z,102420.94
2019-06-09T10:36:27.648Z,102417.55
2019-06-09T10:39:15.727Z,102417.78
2019-06-09T10:42:04.095Z,102415.86
2019-06-09T10:44:55.131Z,102404.23
2019-06-09T10:47:41.755Z,102408.39
2019-06-09T10:50:30.954Z,102415.84
2019-06-09T10:53:16.304Z,102408.27
2019-06-09T10:56:06.169Z,102403.88
2019-06-09T10:58:51.596Z,102393.36
2019-06-09T11:01:40.869Z,102386.98
2019-06-09T11:04:26.009Z,102395.87
2019-06-09T11:07:13.456Z,102390.45
2019-06-09T11:10:16.668Z,102383.61
2019-06-09T11:12:51.130Z,102378.33
2019-06-09T11:15:39.139Z,102376.22
2019-06-09T11:18:23.976Z,102372.41
2019-06-09T11:21:11.883Z,102370.18
2019-06-09T11:24:03.275Z,102362.34
2019-06-09T11:26:46.866Z,102370.17
2019-06-09T11:29:34.845Z,102357.21
2019-06-09T11:32:22.144Z,102350.41
2019-06-09T11:35:11.024Z,102345.26
2019-06-09T11:38:03.589Z,102351.28
2019-06-09T11:40:52.126Z,102339.44
2019-06-09T11:43:38.590Z,102334.25
2019-06-09T11:46:25.573Z,102340.41
2019-06-09T11:49:13.362Z,102345.71
2019-06-09T11:52:05.499Z,102336.52
2019-06-09T11:54:48.196Z,102334.23
2019-06-09T11:57:35.625Z,102333.68
2019-06-09T12:00:23.093Z,102326.35
2019-06-09T12:03:10.947Z,102324.45
2019-06-09T12:05:59.783Z,102320.97
2019-06-09T12:08:45.440Z,102315.30
2019-06-09T12:11:33.016Z,102310.27
2019-06-09T12:14:21.968Z,102315.88
2019-06-09T12:17:07.905Z,102312.94
2019-06-09T12:19:56.189Z,102312.66
2019-06-09T12:22:42.897Z,102307.00
2019-06-09T12:25:30.367Z,102296.12
2019-06-09T12:28:17.755Z,102294.66
2019-06-09T12:31:07.297Z,102287.22
2019-06-09T12:33:52.859Z,102281.02
2019-06-09T12:36:42.133Z,102287.63
2019-06-09T12:39:27.617Z,102284.66
2019-06-09T12:42:14.996Z,102278.92
2019-06-09T12:45:04.576Z,102284.75
2019-06-09T12:47:50.992Z,102273.23
2019-06-09T12:50:37.523Z,102274.80
2019-06-09T12:53:25.007Z,102280.05
2019-06-09T12:56:13.638Z,102264.81
2019-06-09T12:59:01.177Z,102267.03
2019-06-09T13:01:47.486Z,102260.03
2019-06-09T13:04:35.277Z,102262.51
2019-06-09T13:07:22.575Z,102258.39
2019-06-09T13:10:10.305Z,102257.23
2019-06-09T13:12:57.535Z,102248.92
2019-06-09T13:15:45.674Z,102249.97
2019-06-09T13:18:33.666Z,102236.58
2019-06-09T13:21:21.435Z,102242.84
2019-06-09T13:24:09.140Z,102235.97
2019-06-09T13:26:57.034Z,102228.19
2019-06-09T13:29:44.323Z,102229.95
2019-06-09T13:32:31.685Z,102221.14
2019-06-09T13:35:19.208Z,102218.67
2019-06-09T13:38:07.883Z,102220.84
2019-06-09T13:40:54.227Z,102218.08
2019-06-09T13:43:42.164Z,102211.06
2019-06-09T13:46:31.108Z,102204.77
2019-06-09T13:49:17.399Z,102200.30
2019-06-09T13:52:04.885Z,102177.18
2019-06-09T13:54:52.287Z,102173.64
2019-06-09T13:57:44.081Z,102170.12
2019-06-09T14:00:28.308Z,102158.66
2019-06-09T14:03:17.483Z,102154.10
2019-06-09T14:06:04.561Z,102156.31
2019-06-09T14:08:51.156Z,102145.02
2019-06-09T14:11:42.065Z,102145.45
2019-06-09T14:14:27.326Z,102155.95
2019-06-09T14:17:15.787Z,102161.91
2019-06-09T14:20:01.822Z,102172.02
2019-06-09T14:22:49.217Z,102171.63
2019-06-09T14:25:37.696Z,102178.92
2019-06-09T14:28:24.901Z,102188.44
2019-06-09T14:31:14.673Z,102177.53
2019-06-09T14:34:03.261Z,102164.16
2019-06-09T14:36:47.709Z,102156.97
2019-06-09T14:39:35.055Z,102159.52
2019-06-09T14:42:36.876Z,102163.72
2019-06-09T14:45:13.228Z,102148.59
2019-06-09T14:47:57.902Z,102151.56
2019-06-09T14:50:45.509Z,102152.00
2019-06-09T14:53:33.231Z,102145.07
2019-06-09T14:56:22.356Z,102141.76
2019-06-09T14:59:09.818Z,102143.55
2019-06-09T15:01:55.946Z,102146.84
2019-06-09T15:04:43.394Z,102138.47
2019-06-09T15:07:31.556Z,102135.41
2019-06-09T15:10:19.512Z,102124.07
2019-06-09T15:13:06.171Z,102130.17
2019-06-09T15:15:53.752Z,102122.03
2019-06-09T15:18:41.230Z,102118.45
2019-06-09T15:21:31.093Z,102121.23
2019-06-09T15:24:18.318Z,102124.81
2019-06-09T15:27:04.917Z,102122.66
2019-06-09T15:29:52.447Z,102113.73
2019-06-09T15:32:39.825Z,102107.68
2019-06-09T15:35:27.744Z,102101.25
2019-06-09T15:38:15.786Z,102101.45
2019-06-09T15:41:03.180Z,102093.80
2019-06-09T15:43:51.234Z,102089.33
2019-06-09T15:46:38.345Z,102083.58
2019-06-09T15:49:25.673Z,102084.92
2019-06-09T15:52:14.063Z,102081.16
2019-06-09T15:55:01.697Z,102075.72
2019-06-09T15:57:48.065Z,102078.08
2019-06-09T16:00:41.350Z,102065.72
2019-06-09T16:03:26.544Z,102074.52
2019-06-09T16:06:15.480Z,102071.61
2019-06-09T16:09:02.649Z,102074.16
2019-06-09T16:11:51.316Z,102076.61
2019-06-09T16:14:41.161Z,102071.57
2019-06-09T16:17:41.582Z,102078.91
2019-06-09T16:20:31.723Z,102076.70
2019-06-09T16:23:17.306Z,102078.30
2019-06-09T16:26:03.976Z,102074.91
2019-06-09T16:28:51.282Z,102068.38
2019-06-09T16:31:40.810Z,102054.34
2019-06-09T16:34:27.952Z,102055.12
2019-06-09T16:37:14.425Z,102049.06
2019-06-09T16:40:01.894Z,102051.44
2019-06-09T16:42:52.903Z,102041.88
2019-06-09T16:45:39.554Z,102045.68
2019-06-09T16:48:26.410Z,102038.33
2019-06-09T16:51:15.640Z,102044.41
2019-06-09T16:54:01.225Z,102045.58
2019-06-09T16:56:47.688Z,102041.59
2019-06-09T16:59:35.652Z,102045.17
2019-06-09T17:02:26.052Z,102043.67
2019-06-09T17:05:11.220Z,102040.41
2019-06-09T17:08:21.777Z,102041.01
2019-06-09T17:11:07.404Z,102034.92
2019-06-09T17:14:00.452Z,102029.80
2019-06-09T17:16:43.174Z,102034.28
2019-06-09T17:19:36.612Z,102031.08
2019-06-09T17:22:18.388Z,102032.60
2019-06-09T17:25:05.944Z,102036.28
2019-06-09T17:27:53.801Z,102030.30
2019-06-09T17:30:41.537Z,102033.59
2019-06-09T17:33:32.689Z,102033.06
2019-06-09T17:36:16.330Z,102022.94
2019-06-09T17:39:05.054Z,102028.44
2019-06-09T17:41:52.910Z,102025.02
2019-06-09T17:44:40.889Z,102016.95
2019-06-09T17:47:29.210Z,102019.50
2019-06-09T17:50:15.805Z,102017.45
2019-06-09T17:53:03.912Z,102002.33
2019-06-09T17:55:52.246Z,101992.02
2019-06-09T17:58:41.721Z,101992.13
2019-06-09T18:01:27.088Z,101990.66
2019-06-09T18:04:14.486Z,101986.93
2019-06-09T18:07:02.480Z,101989.16
2019-06-09T18:09:52.494Z,101981.80
2019-06-09T18:12:39.509Z,101982.28
2019-06-09T18:15:26.406Z,101979.83
2019-06-09T18:18:13.046Z,101978.94
2019-06-09T18:21:01.539Z,101975.47
2019-06-09T18:23:51.387Z,101962.08
2019-06-09T18:26:37.802Z,101967.89
2019-06-09T18:29:24.444Z,101963.67
2019-06-09T18:32:12.216Z,101967.12
2019-06-09T18:35:01.160Z,101963.81
2019-06-09T18:37:47.218Z,101968.14
2019-06-09T18:40:37.296Z,101960.49
2019-06-09T18:43:23.778Z,101959.42
2019-06-09T18:46:11.448Z,101954.74
2019-06-09T18:49:01.986Z,101954.71
2019-06-09T18:51:46.591Z,101948.27
2019-06-09T18:54:34.319Z,101948.64
2019-06-09T18:57:22.088Z,101954.13
2019-06-09T19:00:11.207Z,101953.73
2019-06-09T19:02:57.116Z,101948.75
2019-06-09T19:05:44.869Z,101942.30
2019-06-09T19:08:33.254Z,101939.50
2019-06-09T19:11:21.430Z,101940.73
2019-06-09T19:14:10.916Z,101938.63
2019-06-09T19:16:56.665Z,101942.23
2019-06-09T19:19:44.257Z,101941.20
2019-06-09T19:22:33.453Z,101934.59
2019-06-09T19:25:21.176Z,101935.53
2019-06-09T19:28:07.070Z,101930.61
2019-06-09T19:30:56.755Z,101928.02
2019-06-09T19:33:44.600Z,101923.62
2019-06-09T19:36:31.907Z,101922.89
2019-06-09T19:39:17.240Z,101923.88
2019-06-09T19:42:05.244Z,101926.12
2019-06-09T19:44:52.772Z,101931.10
2019-06-09T19:47:44.841Z,101926.70
2019-06-09T19:50:27.835Z,101935.73
2019-06-09T19:53:15.583Z,101932.55
2019-06-09T19:56:03.306Z,101932.66
2019-06-09T19:58:51.156Z,101936.23
2019-06-09T20:01:39.757Z,101937.20
2019-06-09T20:04:26.132Z,101930.09
2019-06-09T20:07:14.031Z,101933.05
2019-06-09T20:10:01.716Z,101919.42
2019-06-09T20:12:51.595Z,101920.48
2019-06-09T20:15:38.167Z,101915.17
2019-06-09T20:18:24.726Z,101909.99
2019-06-09T20:21:12.078Z,101906.92
2019-06-09T20:24:01.419Z,101908.76
2019-06-09T20:26:51.667Z,101908.47
2019-06-09T20:29:34.581Z,101905.78
2019-06-09T20:32:22.359Z,101898.65
2019-06-09T20:35:10.703Z,101897.02
2019-06-09T20:37:57.122Z,101901.20
2019-06-09T20:40:49.340Z,101900.34
2019-06-09T20:43:34.266Z,101898.41
2019-06-09T20:46:21.801Z,101892.17
2019-06-09T20:49:07.106Z,101891.11
2019-06-09T20:51:54.757Z,101885.92
2019-06-09T20:54:46.213Z,101879.88
2019-06-09T20:57:31.329Z,101876.03
2019-06-09T21:00:20.779Z,101870.36
2019-06-09T21:03:06.801Z,101869.77
2019-06-09T21:05:55.226Z,101863.73
2019-06-09T21:08:42.725Z,101858.55
2019-06-09T21:11:31.596Z,101860.94
2019-06-09T21:14:16.847Z,101855.75
2019-06-09T21:17:04.483Z,101854.19
2019-06-09T21:19:56.568Z,101848.15
2019-06-09T21:22:42.748Z,101842.07
2019-06-09T21:25:28.749Z,101839.39
2019-06-09T21:28:16.156Z,101843.07
2019-06-09T21:31:06.567Z,101840.78
2019-06-09T21:33:54.186Z,101839.05
2019-06-09T21:36:43.460Z,101840.13
2019-06-09T21:39:30.867Z,101844.42
2019-06-09T21:42:17.766Z,101840.98
2019-06-09T21:45:05.309Z,101842.52
2019-06-09T21:47:53.812Z,101845.67
2019-06-09T21:50:41.232Z,101839.90
2019-06-09T21:53:28.204Z,101833.56
2019-06-09T21:56:15.597Z,101840.55
2019-06-09T21:59:03.589Z,101840.92
2019-06-09T22:01:55.147Z,101834.95
2019-06-09T22:04:40.736Z,101841.45
2019-06-09T22:07:26.880Z,101838.09
2019-06-09T22:10:14.622Z,101835.89
2019-06-09T22:13:02.237Z,101842.79
2019-06-09T22:15:54.184Z,101829.36
2019-06-09T22:18:37.330Z,101822.34
2019-06-09T22:21:24.689Z,101815.63
2019-06-09T22:24:12.706Z,101808.91
2019-06-09T22:27:01.774Z,101817.91
2019-06-09T22:29:48.975Z,101826.45
2019-06-09T22:32:35.840Z,101823.39
2019-06-09T22:35:23.227Z,101827.42
2019-06-09T22:38:11.440Z,101831.15
2019-06-09T22:40:59.652Z,101823.58
2019-06-09T22:43:46.278Z,101824.52
2019-06-09T22:46:33.929Z,101815.59
2019-06-09T22:49:21.353Z,101801.42
2019-06-09T22:52:10.907Z,101798.41
2019-06-09T22:54:58.093Z,101791.28
2019-06-09T22:57:44.654Z,101792.25
2019-06-09T23:00:32.109Z,101793.08
2019-06-09T23:03:20.021Z,101780.72
2019-06-09T23:06:07.432Z,101780.02
2019-06-09T23:08:55.313Z,101764.58
2019-06-09T23:11:42.799Z,101767.04
2019-06-09T23:14:30.762Z,101767.22
2019-06-09T23:17:22.623Z,101756.00
2019-06-09T23:20:06.606Z,101748.98
2019-06-09T23:22:54.525Z,101745.22
2019-06-09T23:25:41.799Z,101739.55
2019-06-09T23:28:31.277Z,101738.80
2019-06-09T23:31:16.595Z,101727.84
2019-06-09T23:34:04.786Z,101728.41
2019-06-09T23:36:53.385Z,101720.53
2019-06-09T23:39:41.455Z,101718.03
2019-06-09T23:42:27.579Z,101714.57
2019-06-09T23:45:15.331Z,101716.98
2019-06-09T23:48:04.283Z,101716.20
2019-06-09T23:50:51.597Z,101713.52
2019-06-09T23:53:41.052Z,101705.47
2019-06-09T23:56:26.501Z,101711.47
2019-06-09T23:59:14.083Z,101706.99
